createdAt,value
2022-10-05T00:00:54.052Z,101153.17
2022-10-05T00:03:26.239Z,101161.05
2022-10-05T00:05:56.605Z,101153.82
2022-10-05T00:08:31.614Z,101151.45
2022-10-05T00:11:02.221Z,101145.30
2022-10-05T00:13:34.410Z,101145.04
2022-10-05T00:16:13.879Z,101149.36
2022-10-05T00:18:47.460Z,101153.38
2022-10-05T00:21:23.602Z,101151.49
2022-10-05T00:23:55.460Z,101157.34
2022-10-05T00:26:27.522Z,101155.10
2022-10-05T00:28:58.280Z,101149.66
2022-10-05T00:31:33.967Z,101147.95
2022-10-05T00:34:04.392Z,101138.42
2022-10-05T00:36:35.280Z,101138.20
2022-10-05T00:39:05.821Z,101142.54
2022-10-05T00:41:53.197Z,101145.06
2022-10-05T00:44:41.066Z,101146.58
2022-10-05T00:47:25.415Z,101145.60
2022-10-05T00:50:18.947Z,101145.48
2022-10-05T00:52:58.441Z,101146.65
2022-10-05T00:55:40.231Z,101148.16
2022-10-05T00:58:24.081Z,101152.00
2022-10-05T01:01:07.179Z,101148.00
2022-10-05T01:03:49.812Z,101145.52
2022-10-05T01:06:27.515Z,101141.89
2022-10-05T01:09:07.163Z,101137.83
2022-10-05T01:11:44.778Z,101145.17
2022-10-05T01:14:22.866Z,101143.67
2022-10-05T01:16:59.427Z,101135.48
2022-10-05T01:23:39.128Z,101138.79
2022-10-05T01:26:29.874Z,101140.30
2022-10-05T01:29:09.618Z,101147.71
2022-10-05T01:31:48.910Z,101148.80
2022-10-05T01:34:27.965Z,101144.62
2022-10-05T01:37:05.558Z,101148.50
2022-10-05T01:39:47.490Z,101140.91
2022-10-05T01:42:27.510Z,101133.62
2022-10-05T01:45:10.316Z,101135.95
2022-10-05T01:47:46.367Z,101125.41
2022-10-05T01:50:25.488Z,101126.59
2022-10-05T01:53:05.477Z,101126.51
2022-10-05T01:55:43.892Z,101120.52
2022-10-05T01:58:26.902Z,101126.94
2022-10-05T02:01:08.265Z,101126.81
2022-10-05T02:03:44.364Z,101116.41
2022-10-05T02:06:19.555Z,101117.09
2022-10-05T02:08:53.551Z,101118.02
2022-10-05T02:11:23.846Z,101114.98
2022-10-05T02:14:00.204Z,101113.22
2022-10-05T02:16:37.369Z,101104.91
2022-10-05T02:19:17.036Z,101105.14
2022-10-05T02:21:51.943Z,101096.83
2022-10-05T02:24:26.066Z,101100.59
2022-10-05T02:26:57.656Z,101092.75
2022-10-05T02:29:34.287Z,101092.64
2022-10-05T02:32:08.515Z,101089.81
2022-10-05T02:34:41.203Z,101081.00
2022-10-05T02:37:24.917Z,101080.15
2022-10-05T02:40:09.306Z,101077.17
2022-10-05T02:42:49.904Z,101073.38
2022-10-05T02:45:29.474Z,101073.08
2022-10-05T02:48:09.638Z,101065.41
2022-10-05T02:50:51.240Z,101059.42
2022-10-05T02:53:29.856Z,101056.44
2022-10-05T02:56:14.455Z,101055.72
2022-10-05T02:58:54.556Z,101061.91
2022-10-05T03:01:31.511Z,101063.23
2022-10-05T03:04:09.966Z,101067.95
2022-10-05T03:06:48.147Z,101071.40
2022-10-05T03:09:22.682Z,101063.30
2022-10-05T03:12:07.279Z,101058.50
2022-10-05T03:14:44.026Z,101059.67
2022-10-05T03:17:19.064Z,101059.52
2022-10-05T03:20:12.929Z,101055.97
2022-10-05T03:22:51.717Z,101049.14
2022-10-05T03:25:46.566Z,101046.58
2022-10-05T03:28:21.562Z,101044.39
2022-10-05T03:31:02.024Z,101040.98
2022-10-05T03:33:43.555Z,101041.73
2022-10-05T03:36:23.978Z,101039.55
2022-10-05T03:39:03.551Z,101038.79
2022-10-05T03:41:42.046Z,101040.44
2022-10-05T03:44:23.759Z,101042.34
2022-10-05T03:47:06.068Z,101044.60
2022-10-05T03:49:48.888Z,101042.15
2022-10-05T03:52:23.879Z,101035.19
2022-10-05T03:54:58.930Z,101031.44
2022-10-05T03:57:34.164Z,101032.91
2022-10-05T04:00:13.694Z,101026.46
2022-10-05T04:02:49.296Z,101020.94
2022-10-05T04:05:22.414Z,101018.53
2022-10-05T04:08:00.167Z,101020.85
2022-10-05T04:10:34.335Z,101018.57
2022-10-05T04:13:12.919Z,101011.81
2022-10-05T04:15:49.138Z,101019.75
2022-10-05T04:18:27.243Z,101025.09
2022-10-05T04:21:02.775Z,101020.04
2022-10-05T04:23:45.672Z,101016.50
2022-10-05T04:26:27.897Z,101012.06
2022-10-05T04:29:03.170Z,101008.34
2022-10-05T04:31:46.070Z,101015.48
2022-10-05T04:34:45.864Z,101006.46
2022-10-05T04:37:23.130Z,100996.85
2022-10-05T04:40:04.137Z,100985.50
2022-10-05T04:42:39.615Z,100984.58
2022-10-05T04:45:23.215Z,100981.12
2022-10-05T04:48:10.204Z,100976.02
2022-10-05T04:50:53.241Z,100974.88
2022-10-05T04:53:32.463Z,100967.09
2022-10-05T04:56:11.016Z,100970.20
2022-10-05T04:58:58.465Z,100973.45
2022-10-05T05:01:45.094Z,100969.53
2022-10-05T05:04:51.485Z,100975.05
2022-10-05T05:07:35.835Z,100982.02
2022-10-05T05:10:36.404Z,100978.27
2022-10-05T05:13:20.642Z,100974.02
2022-10-05T05:16:00.250Z,100983.55
2022-10-05T05:19:05.299Z,100978.61
2022-10-05T05:21:46.551Z,100975.48
2022-10-05T05:24:26.308Z,100980.92
2022-10-05T05:27:11.247Z,100985.19
2022-10-05T05:29:56.021Z,100986.11
2022-10-05T05:32:40.329Z,100993.39
2022-10-05T05:35:29.863Z,100996.98
2022-10-05T05:38:14.321Z,100996.55
2022-10-05T05:40:55.686Z,100990.36
2022-10-05T05:43:31.860Z,100986.39
2022-10-05T05:46:07.468Z,100984.27
2022-10-05T05:48:42.175Z,100992.04
2022-10-05T05:51:17.692Z,100996.63
2022-10-05T05:53:51.683Z,101004.59
2022-10-05T05:56:27.647Z,101007.25
2022-10-05T05:59:04.042Z,101005.05
2022-10-05T06:01:44.142Z,101007.37
2022-10-05T06:04:18.425Z,101017.91
2022-10-05T06:06:53.125Z,101015.39
2022-10-05T06:09:27.039Z,101010.36
2022-10-05T06:12:03.188Z,101010.12
2022-10-05T06:14:38.340Z,101010.64
2022-10-05T06:17:16.134Z,101010.56
2022-10-05T06:19:46.343Z,101008.33
2022-10-05T06:22:22.297Z,101013.05
2022-10-05T06:25:05.837Z,101013.90
2022-10-05T06:27:58.739Z,101010.23
2022-10-05T06:30:40.286Z,101005.14
2022-10-05T06:33:24.111Z,101009.52
2022-10-05T06:36:13.883Z,101012.90
2022-10-05T06:39:23.634Z,101014.35
2022-10-05T06:42:09.240Z,101013.73
2022-10-05T06:44:45.940Z,101011.29
2022-10-05T06:47:24.657Z,101011.63
2022-10-05T06:50:04.448Z,101013.10
2022-10-05T06:52:45.964Z,101013.52
2022-10-05T06:55:24.383Z,101010.13
2022-10-05T06:58:07.202Z,101010.89
2022-10-05T07:00:45.469Z,101005.95
2022-10-05T07:03:27.726Z,101009.27
2022-10-05T07:06:11.787Z,101012.61
2022-10-05T07:08:58.366Z,101009.45
2022-10-05T07:11:49.057Z,101012.05
2022-10-05T07:14:32.012Z,101016.61
2022-10-05T07:17:18.314Z,101017.34
2022-10-05T07:19:57.032Z,101012.27
2022-10-05T07:22:42.898Z,101011.97
2022-10-05T07:25:18.583Z,101005.69
2022-10-05T07:27:55.038Z,101011.30
2022-10-05T07:30:25.591Z,101007.83
2022-10-05T07:33:02.771Z,101004.28
2022-10-05T07:35:59.561Z,101006.80
2022-10-05T07:38:37.295Z,101001.70
2022-10-05T07:41:08.827Z,101000.54
2022-10-05T07:44:01.951Z,101005.58
2022-10-05T07:46:45.012Z,101006.44
2022-10-05T07:49:24.444Z,101002.90
2022-10-05T07:52:01.497Z,101002.58
2022-10-05T07:54:46.289Z,101001.14
2022-10-05T07:57:28.028Z,101003.05
2022-10-05T08:00:03.839Z,101004.33
2022-10-05T08:02:42.954Z,101000.33
2022-10-05T08:05:20.073Z,101000.48
2022-10-05T08:07:58.265Z,101001.84
2022-10-05T08:10:37.801Z,101002.14
2022-10-05T08:13:17.580Z,101000.26
2022-10-05T08:15:54.031Z,101001.80
2022-10-05T08:18:38.835Z,100998.74
2022-10-05T08:21:12.126Z,101000.77
2022-10-05T08:23:48.774Z,101000.34
2022-10-05T08:26:28.086Z,100997.11
2022-10-05T08:29:13.800Z,101001.90
2022-10-05T08:31:48.827Z,100997.50
2022-10-05T08:34:27.512Z,100996.40
2022-10-05T08:37:05.110Z,101001.94
2022-10-05T08:39:41.109Z,101005.06
2022-10-05T08:42:40.610Z,101001.58
2022-10-05T08:45:45.402Z,101010.06
2022-10-05T08:48:46.313Z,101010.41
2022-10-05T08:51:44.038Z,101004.19
2022-10-05T08:54:43.098Z,101009.52
2022-10-05T08:57:35.668Z,101013.85
2022-10-05T09:00:16.800Z,101013.50
2022-10-05T09:06:21.733Z,101016.33
2022-10-05T09:09:09.543Z,101017.41
2022-10-05T09:11:45.186Z,101015.58
2022-10-05T09:14:29.366Z,101012.39
2022-10-05T09:17:21.011Z,101014.95
2022-10-05T09:20:23.830Z,101010.58
2022-10-05T09:23:14.693Z,101009.31
2022-10-05T09:25:57.364Z,101007.38
2022-10-05T09:28:40.322Z,101004.19
2022-10-05T09:31:39.062Z,100999.86
2022-10-05T09:34:57.894Z,101000.67
2022-10-05T09:38:17.514Z,101002.45
2022-10-05T09:41:20.882Z,100993.95
2022-10-05T09:44:27.493Z,100994.17
2022-10-05T09:47:28.854Z,100996.44
2022-10-05T09:50:44.380Z,100998.98
2022-10-05T09:53:41.815Z,101002.17
2022-10-05T09:56:35.246Z,100999.64
2022-10-05T09:59:26.093Z,100999.86
2022-10-05T10:02:16.849Z,101001.78
2022-10-05T10:05:16.074Z,100996.55
2022-10-05T10:08:12.836Z,100992.95
2022-10-05T10:11:02.600Z,100992.05
2022-10-05T10:14:12.965Z,100994.17
2022-10-05T10:17:13.927Z,101002.16
2022-10-05T10:20:22.808Z,100997.64
2022-10-05T10:23:27.756Z,101004.96
2022-10-05T10:26:16.255Z,101003.23
2022-10-05T10:32:46.792Z,101001.70
2022-10-05T10:35:26.957Z,100999.78
2022-10-05T10:38:24.580Z,100996.05
2022-10-05T10:41:13.873Z,100998.08
2022-10-05T10:44:04.240Z,100992.98
2022-10-05T10:46:46.841Z,100987.55
2022-10-05T10:49:35.185Z,100991.07
2022-10-05T10:52:18.800Z,100984.27
2022-10-05T10:55:20.238Z,100988.59
2022-10-05T10:58:15.899Z,100987.33
2022-10-05T11:00:54.732Z,100982.48
2022-10-05T11:03:51.805Z,100988.98
2022-10-05T11:06:35.642Z,100990.10
2022-10-05T11:09:33.192Z,100991.27
2022-10-05T11:12:28.960Z,100987.70
2022-10-05T11:15:26.598Z,100990.51
2022-10-05T11:18:09.946Z,100982.55
2022-10-05T11:21:05.222Z,100983.10
2022-10-05T11:24:16.378Z,100979.30
2022-10-05T11:27:03.995Z,100978.52
2022-10-05T11:29:53.318Z,100975.90
2022-10-05T11:33:11.901Z,100971.23
2022-10-05T11:36:09.731Z,100968.46
2022-10-05T11:39:24.029Z,100964.26
2022-10-05T11:42:20.421Z,100962.42
2022-10-05T11:45:11.551Z,100959.73
2022-10-05T11:47:54.358Z,100958.25
2022-10-05T11:50:33.981Z,100949.51
2022-10-05T11:53:12.085Z,100946.79
2022-10-05T11:55:49.792Z,100943.05
2022-10-05T11:58:27.486Z,100937.19
2022-10-05T12:01:06.809Z,100934.11
2022-10-05T12:03:54.309Z,100928.63
2022-10-05T12:06:44.722Z,100925.17
2022-10-05T12:09:27.924Z,100922.38
2022-10-05T12:12:12.326Z,100913.84
2022-10-05T12:14:51.906Z,100911.59
2022-10-05T12:17:33.645Z,100913.70
2022-10-05T12:20:14.125Z,100912.20
2022-10-05T12:22:50.919Z,100915.58
2022-10-05T12:25:26.638Z,100911.28
2022-10-05T12:28:03.552Z,100909.30
2022-10-05T12:31:07.566Z,100904.52
2022-10-05T12:33:47.102Z,100898.55
2022-10-05T12:36:22.422Z,100896.66
2022-10-05T12:39:03.520Z,100899.08
2022-10-05T12:41:40.465Z,100894.00
2022-10-05T12:44:20.167Z,100892.95
2022-10-05T12:47:05.203Z,100888.65
2022-10-05T12:49:47.472Z,100881.00
2022-10-05T12:52:31.571Z,100881.04
2022-10-05T12:55:08.308Z,100875.95
2022-10-05T12:57:48.190Z,100871.81
2022-10-05T13:00:23.188Z,100868.83
2022-10-05T13:03:01.142Z,100861.05
2022-10-05T13:05:32.754Z,100860.30
2022-10-05T13:08:14.513Z,100859.17
2022-10-05T13:10:50.429Z,100853.78
2022-10-05T13:13:38.830Z,100851.05
2022-10-05T13:16:18.928Z,100846.52
2022-10-05T13:19:01.887Z,100836.23
2022-10-05T13:21:40.931Z,100831.11
2022-10-05T13:24:21.340Z,100825.60
2022-10-05T13:26:56.262Z,100822.36
2022-10-05T13:29:33.118Z,100825.94
2022-10-05T13:32:15.284Z,100825.90
2022-10-05T13:34:55.508Z,100821.45
2022-10-05T13:37:35.327Z,100824.14
2022-10-05T13:40:21.752Z,100824.20
2022-10-05T13:43:00.459Z,100824.65
2022-10-05T13:45:40.552Z,100818.87
2022-10-05T13:48:23.131Z,100816.93
2022-10-05T13:51:03.898Z,100817.50
2022-10-05T13:53:46.402Z,100811.20
2022-10-05T13:56:22.278Z,100809.09
2022-10-05T13:58:59.620Z,100805.61
2022-10-05T14:01:36.422Z,100802.73
2022-10-05T14:04:16.069Z,100801.50
2022-10-05T14:06:47.428Z,100794.41
2022-10-05T14:09:31.422Z,100793.98
2022-10-05T14:12:20.630Z,100787.15
2022-10-05T14:14:53.928Z,100782.40
2022-10-05T14:17:40.241Z,100777.56
2022-10-05T14:20:26.963Z,100766.50
2022-10-05T14:23:01.419Z,100770.02
2022-10-05T14:25:46.542Z,100767.24
2022-10-05T14:28:29.678Z,100756.86
2022-10-05T14:31:02.201Z,100751.89
2022-10-05T14:33:35.000Z,100751.42
2022-10-05T14:36:07.667Z,100740.83
2022-10-05T14:38:57.772Z,100733.14
2022-10-05T14:41:31.690Z,100732.33
2022-10-05T14:44:05.601Z,100732.45
2022-10-05T14:46:39.788Z,100726.17
2022-10-05T14:49:24.218Z,100730.51
2022-10-05T14:51:56.159Z,100736.87
2022-10-05T14:54:36.115Z,100729.77
2022-10-05T14:57:18.844Z,100726.77
2022-10-05T15:00:16.496Z,100728.94
2022-10-05T15:03:14.955Z,100729.61
2022-10-05T15:05:49.820Z,100723.31
2022-10-05T15:08:42.538Z,100724.16
2022-10-05T15:11:22.908Z,100716.83
2022-10-05T15:13:54.629Z,100718.55
2022-10-05T15:16:28.915Z,100715.67
2022-10-05T15:19:08.395Z,100712.63
2022-10-05T15:21:47.513Z,100718.88
2022-10-05T15:24:26.373Z,100710.71
2022-10-05T15:27:00.395Z,100709.35
2022-10-05T15:29:54.960Z,100701.09
2022-10-05T15:32:38.066Z,100695.70
2022-10-05T15:35:43.773Z,100694.13
2022-10-05T15:38:25.788Z,100694.73
2022-10-05T15:41:14.918Z,100693.82
2022-10-05T15:44:00.116Z,100691.84
2022-10-05T15:46:37.209Z,100694.50
2022-10-05T15:49:21.399Z,100694.94
2022-10-05T15:52:01.326Z,100693.07
2022-10-05T15:55:16.542Z,100693.20
2022-10-05T15:57:54.395Z,100687.67
2022-10-05T16:00:26.521Z,100687.20
2022-10-05T16:03:08.681Z,100681.40
2022-10-05T16:06:04.499Z,100683.93
2022-10-05T16:09:02.626Z,100683.86
2022-10-05T16:11:49.249Z,100680.95
2022-10-05T16:14:34.489Z,100677.77
2022-10-05T16:17:22.101Z,100676.52
2022-10-05T16:20:04.130Z,100678.16
2022-10-05T16:22:45.088Z,100673.64
2022-10-05T16:25:22.519Z,100671.88
2022-10-05T16:28:13.611Z,100674.09
2022-10-05T16:30:53.519Z,100670.38
2022-10-05T16:33:33.805Z,100670.16
2022-10-05T16:36:13.650Z,100672.77
2022-10-05T16:38:53.711Z,100673.34
2022-10-05T16:41:32.632Z,100672.98
2022-10-05T16:44:15.364Z,100664.52
2022-10-05T16:46:51.830Z,100670.59
2022-10-05T16:49:38.175Z,100671.23
2022-10-05T16:52:15.350Z,100672.17
2022-10-05T16:54:49.666Z,100673.40
2022-10-05T16:57:24.240Z,100671.87
2022-10-05T17:00:16.601Z,100672.46
2022-10-05T17:03:01.165Z,100672.70
2022-10-05T17:05:47.962Z,100669.97
2022-10-05T17:08:36.781Z,100672.64
2022-10-05T17:11:21.274Z,100675.11
2022-10-05T17:14:08.513Z,100673.98
2022-10-05T17:16:54.601Z,100678.52
2022-10-05T17:19:40.133Z,100685.80
2022-10-05T17:22:22.682Z,100685.30
2022-10-05T17:25:00.057Z,100694.36
2022-10-05T17:27:36.497Z,100694.86
2022-10-05T17:30:37.599Z,100695.73
2022-10-05T17:33:22.427Z,100695.72
2022-10-05T17:36:18.382Z,100696.13
2022-10-05T17:39:12.229Z,100706.11
2022-10-05T17:41:43.058Z,100711.52
2022-10-05T17:44:26.450Z,100717.23
2022-10-05T17:46:59.243Z,100718.87
2022-10-05T17:50:09.365Z,100724.33
2022-10-05T17:53:02.543Z,100729.63
2022-10-05T17:56:03.020Z,100726.34
2022-10-05T17:59:03.424Z,100729.84
2022-10-05T18:01:38.977Z,100741.98
2022-10-05T18:04:45.016Z,100741.13
2022-10-05T18:07:21.910Z,100744.30
2022-10-05T18:10:14.401Z,100739.56
2022-10-05T18:12:49.035Z,100744.05
2022-10-05T18:15:50.604Z,100744.85
2022-10-05T18:18:58.604Z,100749.76
2022-10-05T18:21:35.865Z,100753.90
2022-10-05T18:24:45.274Z,100752.30
2022-10-05T18:27:34.247Z,100749.79
2022-10-05T18:30:18.969Z,100755.36
2022-10-05T18:33:07.538Z,100758.05
2022-10-05T18:35:50.383Z,100755.75
2022-10-05T18:38:44.487Z,100756.77
2022-10-05T18:41:31.609Z,100763.98
2022-10-05T18:44:19.425Z,100762.33
2022-10-05T18:46:55.667Z,100774.62
2022-10-05T18:49:44.060Z,100774.19
2022-10-05T18:52:22.010Z,100777.74
2022-10-05T18:55:03.990Z,100780.37
2022-10-05T18:57:51.147Z,100776.44
2022-10-05T19:00:23.786Z,100775.90
2022-10-05T19:02:59.032Z,100775.17
2022-10-05T19:05:48.661Z,100778.21
2022-10-05T19:08:32.810Z,100777.15
2022-10-05T19:11:14.337Z,100778.70
2022-10-05T19:13:53.923Z,100782.72
2022-10-05T19:16:49.249Z,100787.05
2022-10-05T19:19:39.649Z,100786.65
2022-10-05T19:22:20.199Z,100787.45
2022-10-05T19:25:05.440Z,100789.71
2022-10-05T19:27:49.799Z,100788.26
2022-10-05T19:30:27.143Z,100790.63
2022-10-05T19:33:14.759Z,100790.23
2022-10-05T19:35:58.203Z,100799.52
2022-10-05T19:38:42.457Z,100799.05
2022-10-05T19:41:18.599Z,100802.10
2022-10-05T19:44:02.240Z,100806.08
2022-10-05T19:46:50.477Z,100813.05
2022-10-05T19:49:38.207Z,100813.28
2022-10-05T19:52:12.043Z,100818.08
2022-10-05T19:54:43.452Z,100811.70
2022-10-05T19:57:19.025Z,100813.92
2022-10-05T19:59:50.029Z,100816.48
2022-10-05T20:02:26.070Z,100815.15
2022-10-05T20:05:06.417Z,100820.48
2022-10-05T20:07:37.027Z,100825.73
2022-10-05T20:10:29.280Z,100832.23
2022-10-05T20:13:02.554Z,100830.48
2022-10-05T20:15:52.106Z,100830.19
2022-10-05T20:18:58.583Z,100826.08
2022-10-05T20:21:59.870Z,100819.65
2022-10-05T20:24:32.074Z,100821.69
2022-10-05T20:27:05.828Z,100832.10
2022-10-05T20:29:38.315Z,100838.67
2022-10-05T20:32:12.119Z,100847.54
2022-10-05T20:34:44.419Z,100852.23
2022-10-05T20:37:16.420Z,100863.62
2022-10-05T20:39:47.347Z,100871.10
2022-10-05T20:42:18.224Z,100880.04
2022-10-05T20:44:54.328Z,100884.98
2022-10-05T20:47:27.747Z,100891.23
2022-10-05T20:49:58.076Z,100893.55
2022-10-05T20:52:28.724Z,100889.00
2022-10-05T20:54:59.333Z,100885.80
2022-10-05T20:57:29.678Z,100887.39
2022-10-05T21:00:00.144Z,100884.98
2022-10-05T21:02:30.463Z,100903.34
2022-10-05T21:05:00.944Z,100908.90
2022-10-05T21:07:34.061Z,100917.22
2022-10-05T21:10:05.695Z,100925.54
2022-10-05T21:12:36.416Z,100928.25
2022-10-05T21:15:10.840Z,100932.10
2022-10-05T21:17:41.190Z,100935.88
2022-10-05T21:20:12.945Z,100935.66
2022-10-05T21:22:43.997Z,100934.02
2022-10-05T21:25:14.853Z,100934.98
2022-10-05T21:27:46.359Z,100938.43
2022-10-05T21:30:17.304Z,100939.15
2022-10-05T21:32:48.012Z,100935.27
2022-10-05T21:35:19.082Z,100933.45
2022-10-05T21:37:50.172Z,100932.79
2022-10-05T21:40:20.964Z,100945.11
2022-10-05T21:42:51.592Z,100949.89
2022-10-05T21:45:22.229Z,100947.35
2022-10-05T21:47:52.984Z,100948.99
2022-10-05T21:50:23.705Z,100943.80
2022-10-05T21:52:54.727Z,100946.44
2022-10-05T21:55:25.131Z,100945.92
2022-10-05T21:57:56.800Z,100949.11
2022-10-05T22:00:27.136Z,100944.32
2022-10-05T22:02:57.599Z,100948.90
2022-10-05T22:05:28.668Z,100948.98
2022-10-05T22:07:59.185Z,100946.31
2022-10-05T22:10:29.522Z,100943.69
2022-10-05T22:13:03.633Z,100941.39
2022-10-05T22:15:34.208Z,100942.50
2022-10-05T22:18:04.798Z,100941.92
2022-10-05T22:20:37.037Z,100942.36
2022-10-05T22:23:07.654Z,100938.77
2022-10-05T22:25:38.576Z,100935.39
2022-10-05T22:28:12.244Z,100942.31
2022-10-05T22:30:43.856Z,100948.27
2022-10-05T22:33:14.658Z,100948.46
2022-10-05T22:35:45.266Z,100944.95
2022-10-05T22:38:15.654Z,100953.25
2022-10-05T22:40:45.960Z,100958.17
2022-10-05T22:43:16.382Z,100960.89
2022-10-05T22:45:47.136Z,100966.63
2022-10-05T22:48:17.569Z,100968.95
2022-10-05T22:50:48.863Z,100968.52
2022-10-05T22:53:19.438Z,100970.34
2022-10-05T22:55:50.076Z,100969.50
2022-10-05T22:58:20.993Z,100967.53
2022-10-05T23:00:58.378Z,100964.91
2022-10-05T23:03:29.237Z,100965.18
2022-10-05T23:06:03.133Z,100963.22
2022-10-05T23:08:34.279Z,100964.15
2022-10-05T23:11:06.043Z,100963.77
2022-10-05T23:13:36.424Z,100967.98
2022-10-05T23:16:11.604Z,100969.19
2022-10-05T23:18:43.127Z,100963.02
2022-10-05T23:21:13.687Z,100971.48
2022-10-05T23:23:47.313Z,100970.69
2022-10-05T23:26:19.210Z,100979.98
2022-10-05T23:28:50.264Z,100978.62
2022-10-05T23:31:22.681Z,100979.32
2022-10-05T23:33:54.017Z,100983.36
2022-10-05T23:36:26.472Z,100983.41
2022-10-05T23:38:57.185Z,100990.86
2022-10-05T23:41:27.615Z,101000.64
2022-10-05T23:43:57.943Z,101001.05
2022-10-05T23:46:28.351Z,101004.25
2022-10-05T23:48:58.855Z,100998.86
2022-10-05T23:51:29.558Z,100996.74
2022-10-05T23:53:59.870Z,101000.09
2022-10-05T23:56:31.197Z,100997.02
2022-10-05T23:59:01.580Z,101001.66
